Time;durP1;ratioP1;P1;durP2;ratioP2;P2;SDS_P1;SDS_P2;PMS_P1;PMS_P2;Temp;Humidity;BMP_temperature;BMP_pressure;BME280_temperature;BME280_humidity;BME280_pressure;Samples;Min_cycle;Max_cycle;Signal;HPM_P1;HPM_P2
2021/11/26 00:00:33;;;;;;;25.83;17.80;;;4.10;99.90;;;;;;2055950;28;20035;-67
2021/11/26 00:01:34;;;;;;;26.77;18.20;;;4.10;99.90;;;;;;2055262;28;20027;-69
2021/11/26 00:02:34;;;;;;;26.20;17.52;;;4.10;99.90;;;;;;2055831;28;20812;-69
2021/11/26 00:03:35;;;;;;;25.83;17.58;;;4.10;99.90;;;;;;2055778;28;20122;-69
2021/11/26 00:04:36;;;;;;;28.02;19.27;;;4.10;99.90;;;;;;2055946;28;20039;-67
2021/11/26 00:05:37;;;;;;;26.42;17.67;;;4.10;99.90;;;;;;2055641;28;20787;-67
2021/11/26 00:06:37;;;;;;;28.55;19.17;;;4.10;99.90;;;;;;2055550;28;20046;-67
2021/11/26 00:07:38;;;;;;;29.40;20.35;;;4.10;99.90;;;;;;2056213;28;20031;-68
2021/11/26 00:08:39;;;;;;;28.83;19.55;;;4.10;99.90;;;;;;2056220;28;20033;-68
2021/11/26 00:09:40;;;;;;;29.13;19.42;;;4.00;99.90;;;;;;2056214;28;20030;-68
2021/11/26 00:10:41;;;;;;;26.73;18.63;;;4.10;99.90;;;;;;2055839;28;20019;-69
2021/11/26 00:11:42;;;;;;;27.13;18.67;;;4.10;99.90;;;;;;2055890;28;20359;-68
2021/11/26 00:12:51;;;;;;;29.05;19.42;;;4.00;99.90;;;;;;2056549;28;20033;-69
2021/11/26 00:14:10;;;;;;;26.15;18.63;;;4.10;99.90;;;;;;2056335;28;20034;-69
2021/11/26 00:15:21;;;;;;;30.70;20.23;;;4.10;99.90;;;;;;2056457;28;20102;-67
2021/11/26 00:16:28;;;;;;;31.90;21.08;;;4.10;99.90;;;;;;2047801;28;20035;-70
2021/11/26 00:17:33;;;;;;;31.13;21.13;;;4.10;99.90;;;;;;2048130;28;20023;-69
2021/11/26 00:18:42;;;;;;;29.95;19.92;;;4.00;99.90;;;;;;2050967;28;20067;-70
2021/11/26 00:19:43;;;;;;;34.05;21.83;;;4.00;99.90;;;;;;2052217;28;20031;-70
2021/11/26 00:20:45;;;;;;;32.95;21.73;;;4.00;99.90;;;;;;2053484;28;20114;-70
2021/11/26 00:21:46;;;;;;;30.55;21.15;;;4.00;99.90;;;;;;2052250;28;20092;-69
2021/11/26 00:22:46;;;;;;;29.75;20.73;;;4.10;99.90;;;;;;2047936;28;20031;-69
2021/11/26 00:23:47;;;;;;;32.38;21.88;;;4.00;99.90;;;;;;2047596;29;20023;-70
2021/11/26 00:24:49;;;;;;;31.95;22.05;;;4.00;99.90;;;;;;2048371;28;20036;-69
2021/11/26 00:25:50;;;;;;;31.83;21.55;;;4.00;99.90;;;;;;2048326;28;20023;-69
2021/11/26 00:26:50;;;;;;;32.03;21.70;;;4.00;99.90;;;;;;2048242;28;20445;-69
2021/11/26 00:27:51;;;;;;;35.20;22.35;;;4.00;99.90;;;;;;2047520;29;20090;-69
2021/11/26 00:28:52;;;;;;;33.30;22.52;;;4.00;99.90;;;;;;2047715;28;20422;-69
2021/11/26 00:29:53;;;;;;;33.75;22.45;;;4.00;99.90;;;;;;2047852;29;20668;-70
2021/11/26 00:30:54;;;;;;;33.25;21.75;;;4.00;99.90;;;;;;2047435;29;20038;-70
2021/11/26 00:31:55;;;;;;;32.65;22.30;;;4.00;99.90;;;;;;2047199;29;20039;-70
2021/11/26 00:32:56;;;;;;;32.10;21.60;;;4.00;99.90;;;;;;2047367;29;20580;-68
2021/11/26 00:33:56;;;;;;;32.38;21.48;;;4.00;99.90;;;;;;2048198;29;20394;-69
2021/11/26 00:34:57;;;;;;;29.80;20.45;;;4.00;99.90;;;;;;2048274;28;20031;-68
2021/11/26 00:35:59;;;;;;;30.67;21.15;;;4.00;99.90;;;;;;2048258;28;20042;-69
2021/11/26 00:36:59;;;;;;;33.05;21.67;;;4.10;99.90;;;;;;2048319;28;20122;-68
2021/11/26 00:38:00;;;;;;;30.60;20.90;;;4.00;99.90;;;;;;2048102;28;20030;-68
2021/11/26 00:39:03;;;;;;;30.65;21.13;;;4.00;99.90;;;;;;2048228;28;20027;-67
2021/11/26 00:40:04;;;;;;;32.65;21.10;;;4.10;99.90;;;;;;2048288;28;20057;-68
2021/11/26 00:41:05;;;;;;;30.85;21.13;;;4.10;99.90;;;;;;2047654;29;20023;-68
2021/11/26 00:42:06;;;;;;;29.90;20.92;;;4.10;99.90;;;;;;2048172;28;20490;-67
2021/11/26 00:43:07;;;;;;;31.67;21.75;;;4.10;99.90;;;;;;2048167;28;20059;-68
2021/11/26 00:44:07;;;;;;;30.10;20.75;;;4.10;99.90;;;;;;2048309;29;20059;-67
2021/11/26 00:45:11;;;;;;;30.33;20.77;;;4.10;99.90;;;;;;2048248;28;20394;-68
2021/11/26 00:46:12;;;;;;;31.00;21.65;;;4.10;99.90;;;;;;2048160;28;20120;-67
2021/11/26 00:47:13;;;;;;;33.70;21.77;;;4.10;99.90;;;;;;2048191;29;20027;-68
2021/11/26 00:48:13;;;;;;;32.72;21.98;;;4.10;99.90;;;;;;2048133;28;20571;-68
2021/11/26 00:49:14;;;;;;;33.55;21.63;;;4.10;99.90;;;;;;2048161;28;20031;-68
2021/11/26 00:50:17;;;;;;;31.17;21.10;;;4.10;99.90;;;;;;2047826;29;20094;-67
2021/11/26 00:51:17;;;;;;;32.85;22.63;;;4.10;99.90;;;;;;2047506;28;20016;-68
2021/11/26 00:52:18;;;;;;;32.25;21.85;;;4.10;99.90;;;;;;2048033;28;20086;-67
2021/11/26 00:53:19;;;;;;;35.83;24.10;;;4.10;99.90;;;;;;2048096;28;20440;-67
2021/11/26 00:54:20;;;;;;;34.97;23.52;;;4.10;99.90;;;;;;2047658;29;20030;-67
2021/11/26 00:55:21;;;;;;;35.85;23.40;;;4.20;99.90;;;;;;2047597;28;20038;-69
2021/11/26 00:56:21;;;;;;;36.42;23.55;;;4.20;99.90;;;;;;2048208;28;20043;-69
2021/11/26 00:57:22;;;;;;;32.05;21.92;;;4.10;99.90;;;;;;2048321;28;20038;-70
2021/11/26 00:58:23;;;;;;;32.95;22.15;;;4.10;99.90;;;;;;2048209;28;20035;-69
2021/11/26 00:59:23;;;;;;;32.22;22.02;;;4.10;99.90;;;;;;2048333;28;20086;-69
2021/11/26 01:00:24;;;;;;;32.60;22.75;;;4.10;99.90;;;;;;2047588;28;20708;-69
2021/11/26 01:01:25;;;;;;;38.25;25.20;;;4.10;99.90;;;;;;2046911;29;20042;-69
2021/11/26 01:02:26;;;;;;;36.17;23.80;;;4.10;99.90;;;;;;2047590;29;20027;-69
2021/11/26 01:03:27;;;;;;;38.15;24.50;;;4.10;99.90;;;;;;2048138;28;20027;-68
2021/11/26 01:04:28;;;;;;;38.22;24.80;;;4.10;99.90;;;;;;2048016;29;20042;-68
2021/11/26 01:05:29;;;;;;;37.22;23.85;;;4.10;99.90;;;;;;2050590;28;20042;-67
2021/11/26 01:06:31;;;;;;;40.22;24.73;;;4.10;99.90;;;;;;2051256;28;20110;-69
2021/11/26 01:07:32;;;;;;;38.50;25.15;;;4.10;99.90;;;;;;2048041;28;20023;-68
2021/11/26 01:08:33;;;;;;;37.45;24.50;;;4.10;99.90;;;;;;2048015;29;20399;-69
2021/11/26 01:09:34;;;;;;;37.58;24.38;;;4.00;99.90;;;;;;2047715;28;20035;-69
2021/11/26 01:10:35;;;;;;;35.55;24.08;;;4.10;99.90;;;;;;2047750;28;20450;-69
2021/11/26 01:11:36;;;;;;;35.35;23.60;;;4.10;99.90;;;;;;2047707;28;20546;-69
2021/11/26 01:12:37;;;;;;;41.40;25.73;;;4.00;99.90;;;;;;2048010;28;20019;-69
2021/11/26 01:13:38;;;;;;;39.28;25.23;;;4.00;99.90;;;;;;2052631;28;20816;-69
2021/11/26 01:14:39;;;;;;;37.90;24.83;;;4.00;99.90;;;;;;2056125;28;20449;-69
2021/11/26 01:15:40;;;;;;;38.05;24.80;;;4.00;99.90;;;;;;2056169;28;20027;-70
2021/11/26 01:16:41;;;;;;;36.00;23.67;;;4.00;99.90;;;;;;2056130;28;20027;-69
2021/11/26 01:17:42;;;;;;;38.03;24.73;;;4.10;99.90;;;;;;2047186;28;20111;-68
2021/11/26 01:18:44;;;;;;;38.22;24.40;;;4.00;99.90;;;;;;2047670;28;20041;-69
2021/11/26 01:19:45;;;;;;;39.85;26.08;;;4.00;99.90;;;;;;2055497;28;20023;-69
2021/11/26 01:20:47;;;;;;;38.63;25.48;;;4.00;99.90;;;;;;2054879;28;20042;-69
2021/11/26 01:21:48;;;;;;;46.03;27.88;;;4.10;99.90;;;;;;2055621;28;20046;-68
2021/11/26 01:22:50;;;;;;;44.45;27.48;;;4.00;99.90;;;;;;2055372;28;20494;-68
2021/11/26 01:23:51;;;;;;;40.78;25.80;;;4.00;99.90;;;;;;2055596;28;20027;-69
2021/11/26 01:24:51;;;;;;;39.97;25.42;;;4.00;99.90;;;;;;2056405;28;20537;-70
2021/11/26 01:25:53;;;;;;;40.35;25.25;;;4.00;99.90;;;;;;2056441;28;20046;-70
2021/11/26 01:26:54;;;;;;;40.53;25.88;;;4.00;99.90;;;;;;2055822;28;20043;-71
2021/11/26 01:27:55;;;;;;;41.10;25.80;;;4.00;99.90;;;;;;2056013;28;20039;-70
2021/11/26 01:28:56;;;;;;;40.47;26.38;;;4.00;99.90;;;;;;2055502;28;20102;-70
2021/11/26 01:29:57;;;;;;;40.53;26.55;;;4.00;99.90;;;;;;2048385;28;20435;-70
2021/11/26 01:30:58;;;;;;;35.33;24.15;;;4.00;99.90;;;;;;2057026;28;20033;-70
2021/11/26 01:31:59;;;;;;;36.83;23.80;;;4.00;99.90;;;;;;2056580;28;20062;-69
2021/11/26 01:33:02;;;;;;;36.95;24.35;;;4.10;99.90;;;;;;2056952;28;20039;-71
2021/11/26 01:34:04;;;;;;;39.17;25.35;;;4.00;99.90;;;;;;2056943;28;20077;-69
2021/11/26 01:35:05;;;;;;;35.67;23.65;;;4.10;99.90;;;;;;2057098;28;20027;-69
2021/11/26 01:36:06;;;;;;;36.10;23.92;;;4.10;99.90;;;;;;2057650;28;20031;-70
2021/11/26 01:37:07;;;;;;;37.55;24.77;;;4.10;99.90;;;;;;2057685;28;20735;-70
2021/11/26 01:38:08;;;;;;;37.00;24.23;;;4.10;99.90;;;;;;2057596;28;20035;-69
2021/11/26 01:39:09;;;;;;;36.58;24.25;;;4.10;99.90;;;;;;2057034;28;20108;-70
2021/11/26 01:40:11;;;;;;;35.97;23.70;;;4.10;99.90;;;;;;2056852;28;20035;-69
2021/11/26 01:41:12;;;;;;;36.80;24.15;;;4.10;99.90;;;;;;2056445;28;20022;-69
2021/11/26 01:42:15;;;;;;;32.35;21.83;;;4.10;99.90;;;;;;2056868;28;20031;-69
2021/11/26 01:43:20;;;;;;;33.90;22.65;;;4.10;99.90;;;;;;2057430;28;20065;-70
2021/11/26 01:44:21;;;;;;;34.40;23.02;;;4.00;99.90;;;;;;2057415;28;20031;-67
2021/11/26 01:45:22;;;;;;;36.03;23.23;;;4.10;99.90;;;;;;2057428;28;20027;-67
2021/11/26 01:46:22;;;;;;;34.85;23.98;;;4.10;99.90;;;;;;2057386;28;20031;-66
2021/11/26 01:47:23;;;;;;;36.08;23.80;;;4.00;99.90;;;;;;2057400;28;20549;-66
2021/11/26 01:48:24;;;;;;;34.88;23.17;;;4.10;99.90;;;;;;2057362;28;20030;-66
2021/11/26 01:49:25;;;;;;;32.67;21.90;;;4.10;99.90;;;;;;2057291;28;20497;-67
2021/11/26 01:50:25;;;;;;;36.80;22.58;;;4.00;99.90;;;;;;2057062;28;20167;-67
2021/11/26 01:51:26;;;;;;;34.58;23.67;;;4.10;99.90;;;;;;2056136;28;20114;-67
2021/11/26 01:52:27;;;;;;;35.25;23.13;;;4.00;99.90;;;;;;2056518;28;20513;-67
2021/11/26 01:53:28;;;;;;;34.17;23.30;;;4.00;99.90;;;;;;2057332;28;20094;-67
2021/11/26 01:54:31;;;;;;;36.53;24.15;;;4.00;99.90;;;;;;2057373;28;20026;-67
2021/11/26 01:55:32;;;;;;;37.95;24.75;;;4.00;99.90;;;;;;2057345;28;20027;-67
2021/11/26 01:56:33;;;;;;;39.10;24.77;;;4.00;99.90;;;;;;2048868;28;20101;-68
2021/11/26 01:57:34;;;;;;;37.58;24.58;;;4.00;99.90;;;;;;2048730;28;20038;-68
2021/11/26 01:58:38;;;;;;;37.05;23.38;;;4.00;99.90;;;;;;2057360;28;20174;-67
2021/11/26 01:59:39;;;;;;;35.20;23.35;;;4.00;99.90;;;;;;2057346;28;20034;-67
2021/11/26 02:00:43;;;;;;;36.47;23.60;;;4.00;99.90;;;;;;2056939;28;20094;-67
2021/11/26 02:01:44;;;;;;;33.88;23.05;;;4.00;99.90;;;;;;2056839;28;20042;-67
2021/11/26 02:02:45;;;;;;;34.72;22.73;;;4.00;99.90;;;;;;2057274;28;20026;-67
2021/11/26 02:03:46;;;;;;;33.92;22.83;;;4.00;99.90;;;;;;2057215;28;20102;-67
2021/11/26 02:04:47;;;;;;;32.90;22.42;;;4.00;99.90;;;;;;2057166;28;20253;-67
2021/11/26 02:05:47;;;;;;;40.75;25.33;;;4.00;99.90;;;;;;2057054;28;20031;-68
2021/11/26 02:06:48;;;;;;;37.90;25.05;;;4.00;99.90;;;;;;2049141;28;20023;-68
2021/11/26 02:07:49;;;;;;;35.70;24.30;;;4.00;99.90;;;;;;2049235;28;20023;-68
2021/11/26 02:08:50;;;;;;;37.67;24.10;;;4.00;99.90;;;;;;2049002;28;20502;-68
2021/11/26 02:09:51;;;;;;;35.58;23.65;;;4.00;99.90;;;;;;2048332;28;20038;-68
2021/11/26 02:10:52;;;;;;;33.85;23.17;;;4.00;99.90;;;;;;2048142;28;20082;-74
2021/11/26 02:11:52;;;;;;;35.80;23.20;;;3.90;99.90;;;;;;2048611;28;20031;-68
2021/11/26 02:12:53;;;;;;;36.08;23.90;;;4.00;99.90;;;;;;2048295;28;20031;-68
2021/11/26 02:13:54;;;;;;;36.78;23.40;;;3.90;99.90;;;;;;2047189;29;20111;-68
2021/11/26 02:14:57;;;;;;;35.17;23.40;;;3.90;99.90;;;;;;2040534;29;20693;-68
2021/11/26 02:16:00;;;;;;;36.60;22.85;;;3.90;99.90;;;;;;2048490;29;20039;-68
2021/11/26 02:17:01;;;;;;;33.60;21.88;;;3.90;99.90;;;;;;2049043;29;20043;-68
2021/11/26 02:18:01;;;;;;;38.90;23.95;;;3.90;99.90;;;;;;2049108;29;20027;-68
2021/11/26 02:19:02;;;;;;;36.83;23.92;;;3.90;99.90;;;;;;2049161;28;20118;-68
2021/11/26 02:20:14;;;;;;;33.70;22.42;;;3.90;99.90;;;;;;2049121;29;20383;-68
2021/11/26 02:21:16;;;;;;;34.50;23.30;;;3.90;99.90;;;;;;2047842;28;20130;-68
2021/11/26 02:22:17;;;;;;;36.55;23.20;;;3.90;99.90;;;;;;2048881;29;20034;-68
2021/11/26 02:23:18;;;;;;;32.53;21.63;;;3.90;99.90;;;;;;2049512;28;20114;-68
2021/11/26 02:24:19;;;;;;;36.42;23.30;;;3.90;99.90;;;;;;2049606;29;20061;-68
2021/11/26 02:25:22;;;;;;;37.15;23.67;;;3.90;99.90;;;;;;2048960;29;20410;-68
2021/11/26 02:26:23;;;;;;;34.40;22.60;;;3.90;99.90;;;;;;2049433;28;20039;-68
2021/11/26 02:27:24;;;;;;;37.20;23.55;;;4.00;99.90;;;;;;2057852;28;20026;-68
2021/11/26 02:28:25;;;;;;;38.13;24.58;;;4.00;99.90;;;;;;2049471;29;20031;-68
2021/11/26 02:29:26;;;;;;;35.75;23.05;;;3.90;99.90;;;;;;2049436;29;20035;-66
2021/11/26 02:30:28;;;;;;;36.25;23.23;;;3.90;99.90;;;;;;2049135;29;20031;-67
2021/11/26 02:31:29;;;;;;;35.60;22.90;;;3.90;99.90;;;;;;2048792;29;20031;-66
2021/11/26 02:32:29;;;;;;;36.33;23.48;;;3.90;99.90;;;;;;2049317;29;20054;-67
2021/11/26 02:33:30;;;;;;;37.15;23.60;;;3.90;99.90;;;;;;2049518;29;20043;-67
2021/11/26 02:34:31;;;;;;;37.28;23.90;;;3.90;99.90;;;;;;2049258;29;20027;-66
2021/11/26 02:35:33;;;;;;;40.95;23.95;;;3.90;99.90;;;;;;2048157;29;20046;-66
2021/11/26 02:36:34;;;;;;;37.22;23.55;;;3.80;99.90;;;;;;2048318;29;20042;-66
2021/11/26 02:37:36;;;;;;;35.83;22.67;;;3.80;99.90;;;;;;2048942;29;20134;-67
2021/11/26 02:38:37;;;;;;;36.35;23.10;;;3.80;99.90;;;;;;2048870;28;20046;-66
2021/11/26 02:39:37;;;;;;;39.25;23.30;;;3.90;99.90;;;;;;2048924;29;20031;-66
2021/11/26 02:40:42;;;;;;;38.22;24.55;;;3.90;99.90;;;;;;2048150;28;20035;-67
2021/11/26 02:41:43;;;;;;;36.90;23.60;;;3.80;99.90;;;;;;2048416;29;20071;-66
2021/11/26 02:42:45;;;;;;;38.10;23.65;;;3.80;99.90;;;;;;2048166;29;20126;-67
2021/11/26 02:43:46;;;;;;;38.75;24.13;;;3.80;99.90;;;;;;2048314;29;20046;-67
2021/11/26 02:44:46;;;;;;;37.85;23.95;;;3.80;99.90;;;;;;2048889;28;20065;-67
2021/11/26 02:45:47;;;;;;;36.03;22.92;;;3.80;99.90;;;;;;2048792;29;20037;-67
2021/11/26 02:46:48;;;;;;;38.15;24.02;;;3.80;99.90;;;;;;2048759;29;20502;-67
2021/11/26 02:47:49;;;;;;;37.72;23.60;;;3.80;99.90;;;;;;2048218;28;20034;-67
2021/11/26 02:48:50;;;;;;;37.35;23.52;;;3.80;99.90;;;;;;2048355;29;20027;-67
2021/11/26 02:49:51;;;;;;;36.58;22.95;;;3.80;99.90;;;;;;2048864;29;20364;-66
2021/11/26 02:50:52;;;;;;;36.30;23.10;;;3.90;99.90;;;;;;2048257;29;20086;-67
2021/11/26 02:51:52;;;;;;;34.78;23.00;;;3.80;99.90;;;;;;2048302;29;20050;-67
2021/11/26 02:52:54;;;;;;;35.78;22.50;;;3.80;99.90;;;;;;2048840;29;20031;-68
2021/11/26 02:53:54;;;;;;;35.70;22.67;;;3.80;99.90;;;;;;2048893;29;20077;-67
2021/11/26 02:54:55;;;;;;;37.47;23.65;;;3.90;99.90;;;;;;2048211;29;20107;-67
2021/11/26 02:55:56;;;;;;;35.58;23.55;;;3.90;99.90;;;;;;2040350;29;20023;-67
2021/11/26 02:56:57;;;;;;;36.97;23.05;;;3.90;99.90;;;;;;2040275;29;20495;-67
2021/11/26 02:57:59;;;;;;;37.40;23.67;;;3.90;99.90;;;;;;2048243;29;20031;-67
2021/11/26 02:58:59;;;;;;;36.83;23.40;;;3.90;99.90;;;;;;2048875;28;20046;-67
2021/11/26 03:00:00;;;;;;;38.28;23.73;;;3.90;99.90;;;;;;2048883;28;20041;-67
2021/11/26 03:01:01;;;;;;;38.75;23.10;;;3.80;99.90;;;;;;2048325;29;20034;-67
2021/11/26 03:02:02;;;;;;;35.90;22.17;;;3.80;99.90;;;;;;2053077;29;20023;-67
2021/11/26 03:03:03;;;;;;;35.15;23.13;;;3.80;99.90;;;;;;2055290;29;20104;-67
2021/11/26 03:04:04;;;;;;;36.83;23.27;;;3.80;99.90;;;;;;2055413;29;20058;-66
2021/11/26 03:05:05;;;;;;;35.97;23.17;;;3.90;99.90;;;;;;2055565;29;20071;-67
2021/11/26 03:06:07;;;;;;;36.10;23.48;;;3.80;99.90;;;;;;2055478;28;20315;-67
2021/11/26 03:07:09;;;;;;;36.08;22.90;;;3.80;99.90;;;;;;2055746;28;20041;-68
2021/11/26 03:08:10;;;;;;;36.25;23.60;;;3.80;99.90;;;;;;2055697;29;20547;-68
2021/11/26 03:09:11;;;;;;;37.33;22.92;;;3.80;99.90;;;;;;2055297;29;20046;-67
2021/11/26 03:10:16;;;;;;;37.05;23.52;;;3.80;99.90;;;;;;2055702;29;20592;-68
2021/11/26 03:11:17;;;;;;;38.05;23.42;;;3.80;99.90;;;;;;2050705;28;20027;-68
2021/11/26 03:12:18;;;;;;;39.25;23.80;;;3.80;99.90;;;;;;2049004;29;20569;-67
2021/11/26 03:13:19;;;;;;;36.38;23.42;;;3.90;99.90;;;;;;2050943;28;20070;-67
2021/11/26 03:14:20;;;;;;;37.00;23.23;;;3.80;99.90;;;;;;2056867;28;20085;-68
2021/11/26 03:15:21;;;;;;;36.95;22.73;;;3.90;99.90;;;;;;2056760;28;20028;-68
2021/11/26 03:16:22;;;;;;;37.10;23.60;;;3.90;99.90;;;;;;2056700;28;20093;-68
2021/11/26 03:17:24;;;;;;;36.13;22.98;;;3.90;99.90;;;;;;2056167;28;20560;-69
2021/11/26 03:18:27;;;;;;;37.40;23.17;;;3.80;99.90;;;;;;2056321;28;20026;-68
2021/11/26 03:19:28;;;;;;;37.53;23.10;;;3.90;99.90;;;;;;2056288;28;20121;-68
2021/11/26 03:20:30;;;;;;;42.28;24.00;;;3.80;99.90;;;;;;2055703;28;20038;-68
2021/11/26 03:21:30;;;;;;;37.50;23.70;;;3.80;99.90;;;;;;2056180;28;20030;-68
2021/11/26 03:22:31;;;;;;;37.85;23.80;;;3.80;99.90;;;;;;2056753;28;20022;-68
2021/11/26 03:23:32;;;;;;;37.75;23.58;;;3.80;99.90;;;;;;2056763;28;20524;-68
2021/11/26 03:24:33;;;;;;;41.05;24.02;;;3.80;99.90;;;;;;2057446;28;20038;-68
2021/11/26 03:25:33;;;;;;;39.83;24.17;;;3.80;99.90;;;;;;2057358;28;20042;-68
2021/11/26 03:26:34;;;;;;;41.78;23.67;;;3.80;99.90;;;;;;2056616;28;20038;-68
2021/11/26 03:27:35;;;;;;;38.20;24.45;;;3.80;99.90;;;;;;2056072;28;20093;-68
2021/11/26 03:28:36;;;;;;;42.72;24.40;;;3.80;99.90;;;;;;2055956;28;20035;-68
2021/11/26 03:29:37;;;;;;;39.00;23.52;;;3.80;99.90;;;;;;2056570;28;20130;-68
2021/11/26 03:30:39;;;;;;;38.05;23.17;;;3.80;99.90;;;;;;2056292;28;20031;-68
2021/11/26 03:31:39;;;;;;;39.10;24.33;;;3.80;99.90;;;;;;2056114;28;20019;-68
2021/11/26 03:32:41;;;;;;;37.83;23.73;;;3.80;99.90;;;;;;2056593;28;20530;-68
2021/11/26 03:33:42;;;;;;;36.28;23.58;;;3.80;99.90;;;;;;2056586;28;20014;-68
2021/11/26 03:34:42;;;;;;;38.47;23.10;;;3.80;99.90;;;;;;2056420;28;20363;-68
2021/11/26 03:35:43;;;;;;;38.47;23.92;;;3.80;99.90;;;;;;2055899;28;20030;-69
2021/11/26 03:36:44;;;;;;;39.25;24.50;;;3.80;99.90;;;;;;2056095;28;20034;-68
2021/11/26 03:37:47;;;;;;;37.22;23.92;;;3.80;99.90;;;;;;2056546;28;20033;-69
2021/11/26 03:38:47;;;;;;;38.72;23.95;;;3.80;99.90;;;;;;2056111;28;20034;-68
2021/11/26 03:39:48;;;;;;;40.20;24.45;;;3.80;99.90;;;;;;2056061;28;20461;-67
2021/11/26 03:40:49;;;;;;;37.97;22.92;;;3.80;99.90;;;;;;2056262;28;20034;-68
2021/11/26 03:41:50;;;;;;;40.65;24.67;;;3.80;99.90;;;;;;2056174;28;20519;-69
2021/11/26 03:42:51;;;;;;;40.30;24.25;;;3.80;99.90;;;;;;2056523;28;20473;-67
2021/11/26 03:43:52;;;;;;;38.30;23.58;;;3.80;99.90;;;;;;2056549;28;20090;-67
2021/11/26 03:44:53;;;;;;;39.08;24.10;;;3.80;99.90;;;;;;2056725;28;20093;-67
2021/11/26 03:45:53;;;;;;;41.83;23.85;;;3.80;99.90;;;;;;2055988;28;20037;-67
2021/11/26 03:46:54;;;;;;;38.22;23.58;;;3.80;99.90;;;;;;2055965;28;20117;-67
2021/11/26 03:47:57;;;;;;;37.20;23.33;;;3.80;99.90;;;;;;2047932;28;20023;-67
2021/11/26 03:48:58;;;;;;;44.30;23.95;;;3.80;99.90;;;;;;2048062;28;20035;-67
2021/11/26 03:49:58;;;;;;;40.03;23.85;;;3.80;99.90;;;;;;2055878;28;20030;-72
2021/11/26 03:50:59;;;;;;;37.38;23.30;;;3.80;99.90;;;;;;2047567;28;20023;-67
2021/11/26 03:52:00;;;;;;;40.25;23.60;;;3.80;99.90;;;;;;2047603;29;20043;-67
2021/11/26 03:53:01;;;;;;;40.15;24.80;;;3.90;99.90;;;;;;2047347;29;20126;-67
2021/11/26 03:54:01;;;;;;;37.33;23.27;;;3.90;99.90;;;;;;2056641;28;20026;-67
2021/11/26 03:55:09;;;;;;;39.08;24.13;;;3.90;99.90;;;;;;2048980;28;20118;-67
2021/11/26 03:56:09;;;;;;;38.08;23.95;;;3.90;99.90;;;;;;2056327;28;20035;-67
2021/11/26 03:57:11;;;;;;;38.25;23.38;;;3.90;99.90;;;;;;2056797;28;20031;-68
2021/11/26 03:58:12;;;;;;;39.17;23.88;;;3.90;99.90;;;;;;2056962;28;20109;-68
2021/11/26 03:59:12;;;;;;;38.28;23.38;;;3.90;99.90;;;;;;2056356;28;20038;-67
2021/11/26 04:00:14;;;;;;;41.10;23.90;;;3.90;99.90;;;;;;2055643;28;20478;-67
2021/11/26 04:01:15;;;;;;;38.33;24.05;;;3.90;99.90;;;;;;2055677;28;20026;-68
2021/11/26 04:02:16;;;;;;;36.90;23.35;;;3.90;99.90;;;;;;2056095;28;20039;-67
2021/11/26 04:03:16;;;;;;;37.05;23.17;;;3.90;99.90;;;;;;2056056;28;20105;-67
2021/11/26 04:04:17;;;;;;;38.83;23.40;;;3.90;99.90;;;;;;2056415;28;20109;-68
2021/11/26 04:05:18;;;;;;;40.72;23.67;;;3.90;99.90;;;;;;2047842;28;20027;-68
2021/11/26 04:06:19;;;;;;;36.63;22.38;;;3.90;99.90;;;;;;2048020;28;20445;-68
2021/11/26 04:07:20;;;;;;;34.65;22.58;;;3.90;99.90;;;;;;2056383;28;20102;-68
2021/11/26 04:08:21;;;;;;;38.22;23.85;;;4.00;99.90;;;;;;2056773;28;20027;-68
2021/11/26 04:09:21;;;;;;;35.60;23.10;;;3.90;99.90;;;;;;2056498;28;20019;-68
2021/11/26 04:10:22;;;;;;;34.47;21.98;;;4.00;99.90;;;;;;2056072;28;20442;-67
2021/11/26 04:11:23;;;;;;;34.08;21.98;;;4.00;99.90;;;;;;2055754;28;20034;-67
2021/11/26 04:12:24;;;;;;;36.17;23.17;;;4.00;99.90;;;;;;2056266;28;20046;-67
2021/11/26 04:13:25;;;;;;;36.40;23.02;;;4.00;99.90;;;;;;2056071;28;20093;-68
2021/11/26 04:14:25;;;;;;;38.83;23.05;;;4.00;99.90;;;;;;2056116;28;20546;-68
2021/11/26 04:15:26;;;;;;;40.83;24.02;;;4.00;99.90;;;;;;2056381;28;20690;-68
2021/11/26 04:16:27;;;;;;;38.28;22.63;;;4.00;99.90;;;;;;2056282;28;20034;-67
2021/11/26 04:17:28;;;;;;;36.55;22.77;;;4.00;99.90;;;;;;2055463;28;20027;-67
2021/11/26 04:18:29;;;;;;;34.10;21.38;;;4.00;99.90;;;;;;2055720;28;20747;-67
2021/11/26 04:19:30;;;;;;;36.03;22.95;;;4.00;99.90;;;;;;2056206;28;20030;-67
2021/11/26 04:20:31;;;;;;;38.47;23.42;;;4.00;99.90;;;;;;2055958;28;20035;-68
2021/11/26 04:21:33;;;;;;;38.88;23.40;;;4.00;99.90;;;;;;2055792;28;20033;-68
2021/11/26 04:22:34;;;;;;;37.78;22.70;;;4.10;99.90;;;;;;2056778;28;20033;-68
2021/11/26 04:23:36;;;;;;;37.28;23.08;;;4.10;99.90;;;;;;2056705;28;20466;-67
2021/11/26 04:24:36;;;;;;;35.42;22.45;;;4.10;99.90;;;;;;2055950;28;20038;-67
2021/11/26 04:25:37;;;;;;;34.05;21.40;;;4.00;99.90;;;;;;2055827;28;20030;-68
2021/11/26 04:26:38;;;;;;;36.15;23.02;;;4.00;99.90;;;;;;2056105;28;20081;-68
2021/11/26 04:27:39;;;;;;;35.50;22.40;;;4.00;99.90;;;;;;2056286;28;20106;-67
2021/11/26 04:28:40;;;;;;;37.83;22.85;;;4.10;99.90;;;;;;2055962;28;20113;-68
2021/11/26 04:29:41;;;;;;;38.20;24.08;;;4.10;99.90;;;;;;2056204;28;20078;-68
2021/11/26 04:30:41;;;;;;;40.30;23.10;;;4.10;99.90;;;;;;2055847;28;20112;-68
2021/11/26 04:31:43;;;;;;;36.03;22.40;;;4.00;99.90;;;;;;2055071;28;20121;-68
2021/11/26 04:32:45;;;;;;;32.97;21.60;;;4.00;99.90;;;;;;2055529;28;20031;-67
2021/11/26 04:33:47;;;;;;;36.60;22.13;;;4.00;99.90;;;;;;2056084;28;20435;-67
2021/11/26 04:34:48;;;;;;;37.88;22.35;;;4.00;99.90;;;;;;2056182;28;20155;-67
2021/11/26 04:35:49;;;;;;;34.90;22.05;;;4.10;99.90;;;;;;2056228;28;20071;-67
2021/11/26 04:36:50;;;;;;;33.45;21.25;;;4.10;99.90;;;;;;2056211;28;20033;-68
2021/11/26 04:37:51;;;;;;;33.80;20.95;;;4.00;99.90;;;;;;2055498;28;20173;-68
2021/11/26 04:38:52;;;;;;;33.13;21.23;;;4.10;99.90;;;;;;2055534;28;20038;-68
2021/11/26 04:39:53;;;;;;;32.67;21.10;;;4.10;99.90;;;;;;2056022;28;20040;-67
2021/11/26 04:40:55;;;;;;;33.47;20.15;;;4.10;99.90;;;;;;2055737;28;20038;-68
2021/11/26 04:41:55;;;;;;;33.20;20.10;;;4.10;99.90;;;;;;2055737;28;20037;-68
2021/11/26 04:42:56;;;;;;;33.03;20.65;;;4.10;99.90;;;;;;2056257;28;20058;-67
2021/11/26 04:43:57;;;;;;;31.33;19.70;;;4.10;99.90;;;;;;2056211;28;20031;-68
2021/11/26 04:44:58;;;;;;;34.13;22.08;;;4.10;99.90;;;;;;2056144;28;20034;-68
2021/11/26 04:45:58;;;;;;;34.00;21.73;;;4.10;99.90;;;;;;2056182;28;20042;-68
2021/11/26 04:46:59;;;;;;;33.92;22.05;;;4.10;99.90;;;;;;2056043;28;20034;-68
2021/11/26 04:48:00;;;;;;;32.28;20.90;;;4.10;99.90;;;;;;2056075;28;20073;-67
2021/11/26 04:49:04;;;;;;;32.83;21.42;;;4.20;99.90;;;;;;2055925;28;20034;-67
2021/11/26 04:50:07;;;;;;;32.55;20.60;;;4.20;99.90;;;;;;2056057;28;20082;-68
2021/11/26 04:51:07;;;;;;;32.45;20.20;;;4.10;99.90;;;;;;2055400;28;20501;-68
2021/11/26 04:52:08;;;;;;;32.17;20.38;;;4.20;99.90;;;;;;2056073;28;20030;-68
2021/11/26 04:53:09;;;;;;;32.78;20.08;;;4.20;99.90;;;;;;2056101;28;20118;-68
2021/11/26 04:54:10;;;;;;;29.90;20.23;;;4.20;99.90;;;;;;2055769;28;20059;-67
2021/11/26 04:55:12;;;;;;;33.03;20.83;;;4.20;99.90;;;;;;2055425;28;20518;-68
2021/11/26 04:56:13;;;;;;;30.60;20.02;;;4.20;99.90;;;;;;2055458;28;20079;-68
2021/11/26 04:57:14;;;;;;;33.30;21.02;;;4.20;99.90;;;;;;2055995;28;20042;-68
2021/11/26 04:58:15;;;;;;;32.13;20.63;;;4.20;99.90;;;;;;2056148;28;20027;-68
2021/11/26 04:59:16;;;;;;;29.63;19.48;;;4.20;99.90;;;;;;2056138;28;20027;-68
2021/11/26 05:00:19;;;;;;;28.42;18.65;;;4.20;99.90;;;;;;2054983;28;20482;-68
2021/11/26 05:01:20;;;;;;;29.83;19.10;;;4.20;99.90;;;;;;2054882;28;20085;-67
2021/11/26 05:02:21;;;;;;;30.30;19.48;;;4.20;99.90;;;;;;2055983;28;20506;-68
2021/11/26 05:03:21;;;;;;;30.33;20.02;;;4.20;99.90;;;;;;2055981;28;20177;-68
2021/11/26 05:04:22;;;;;;;29.27;18.48;;;4.20;99.90;;;;;;2055347;28;20031;-68
2021/11/26 05:05:23;;;;;;;28.95;18.83;;;4.20;99.90;;;;;;2056687;28;20029;-68
2021/11/26 05:06:24;;;;;;;34.33;20.85;;;4.20;99.90;;;;;;2057639;28;20034;-67
2021/11/26 05:07:25;;;;;;;33.10;20.30;;;4.20;99.90;;;;;;2057660;28;20026;-68
2021/11/26 05:08:26;;;;;;;32.67;20.73;;;4.20;99.90;;;;;;2057723;28;20030;-67
2021/11/26 05:09:27;;;;;;;32.05;20.25;;;4.20;99.90;;;;;;2057570;28;20033;-67
2021/11/26 05:10:31;;;;;;;34.03;20.88;;;4.20;99.90;;;;;;2057113;28;20026;-67
2021/11/26 05:11:35;;;;;;;32.08;20.52;;;4.20;99.90;;;;;;2056576;28;20191;-68
2021/11/26 05:12:43;;;;;;;35.08;21.27;;;4.20;99.90;;;;;;2056969;28;20116;-68
2021/11/26 05:13:44;;;;;;;33.33;21.77;;;4.20;99.90;;;;;;2057253;28;20101;-68
2021/11/26 05:14:45;;;;;;;33.03;21.48;;;4.20;99.90;;;;;;2056868;28;20062;-67